Time;durP1;ratioP1;P1;durP2;ratioP2;P2;SDS_P1;SDS_P2;PMS_P1;PMS_P2;Temp;Humidity;BMP_temperature;BMP_pressure;BME280_temperature;BME280_humidity;BME280_pressure;Samples;Min_cycle;Max_cycle;Signal;HPM_P1;HPM_P2
2022/05/09 00:01:09;;;;;;;0.00;0.00;;;;;;;;;;4999975;28;20200;-75
2022/05/09 00:03:38;;;;;;;0.10;0.10;;;;;;;;;;5001414;28;20211;-74
2022/05/09 00:06:07;;;;;;;0.10;0.10;;;;;;;;;;5023554;28;20215;-74
2022/05/09 00:08:42;;;;;;;0.10;0.10;;;;;;;;;;5018858;28;20188;-74
2022/05/09 00:11:09;;;;;;;0.10;0.10;;;;;;;;;;5019164;28;20283;-74
2022/05/09 00:13:36;;;;;;;0.10;0.10;;;10.30;99.90;;;;;;5006314;28;20226;-74
2022/05/09 00:16:04;;;;;;;0.10;0.10;;;10.30;99.90;;;;;;4998186;28;20205;-74
2022/05/09 00:18:32;;;;;;;0.10;0.10;;;;;;;;;;5012940;28;20270;-74
2022/05/09 00:21:00;;;;;;;0.10;0.10;;;;;;;;;;5006975;28;20275;-74
2022/05/09 00:23:29;;;;;;;0.10;0.10;;;;;;;;;;5001335;28;20553;-74
2022/05/09 00:25:57;;;;;;;0.10;0.10;;;;;;;;;;5000215;28;20211;-74
2022/05/09 00:28:25;;;;;;;0.10;0.10;;;;;;;;;;5023042;28;20224;-74
2022/05/09 00:30:54;;;;;;;0.10;0.10;;;;;;;;;;5021820;28;20202;-75
2022/05/09 00:33:24;;;;;;;0.10;0.10;;;;;;;;;;5002202;28;20239;-75
2022/05/09 00:35:52;;;;;;;0.10;0.10;;;;;;;;;;5021132;28;20208;-75
2022/05/09 00:38:19;;;;;;;0.10;0.10;;;;;;;;;;5000472;28;20769;-74
2022/05/09 00:43:32;;;;;;;0.10;0.10;;;9.70;99.90;;;;;;5005054;28;20195;-74
2022/05/09 00:45:59;;;;;;;0.10;0.10;;;9.70;99.90;;;;;;5003487;28;20224;-73
2022/05/09 00:48:26;;;;;;;0.10;0.10;;;9.70;99.90;;;;;;5022550;28;20227;-73
2022/05/09 00:50:54;;;;;;;0.10;0.10;;;9.70;99.90;;;;;;5011360;28;20196;-73
2022/05/09 00:53:21;;;;;;;0.10;0.10;;;9.70;99.90;;;;;;5018240;28;20260;-74
2022/05/09 00:55:55;;;;;;;0.10;0.10;;;9.70;99.90;;;;;;5006569;28;20211;-74
2022/05/09 00:58:26;;;;;;;0.10;0.10;;;9.70;99.90;;;;;;5006121;28;20228;-74
2022/05/09 01:00:55;;;;;;;0.10;0.10;;;9.70;99.90;;;;;;4998058;28;20204;-73
2022/05/09 01:03:27;;;;;;;0.10;0.10;;;9.60;99.90;;;;;;5000271;28;20204;-75
2022/05/09 01:05:55;;;;;;;0.10;0.10;;;9.60;99.90;;;;;;5000009;28;20618;-74
2022/05/09 01:08:23;;;;;;;0.10;0.10;;;9.60;99.90;;;;;;4999137;28;20764;-73
2022/05/09 01:10:54;;;;;;;0.10;0.10;;;9.60;99.90;;;;;;4999200;28;20208;-75
2022/05/09 01:13:25;;;;;;;0.10;0.10;;;9.50;99.90;;;;;;5005712;28;20232;-74
2022/05/09 01:15:54;;;;;;;0.10;0.10;;;;;;;;;;5003263;28;20200;-74
2022/05/09 01:18:22;;;;;;;0.10;0.10;;;;;;;;;;4997908;28;20339;-74
2022/05/09 01:20:49;;;;;;;0.10;0.10;;;;;;;;;;5000961;28;20638;-74
2022/05/09 01:23:18;;;;;;;0.10;0.10;;;;;;;;;;4999549;28;20627;-74
2022/05/09 01:25:45;;;;;;;0.10;0.10;;;9.30;99.90;;;;;;5021025;28;20731;-74
2022/05/09 01:28:13;;;;;;;0.10;0.10;;;9.20;99.90;;;;;;5021165;28;20673;-74
2022/05/09 01:30:47;;;;;;;0.10;0.10;;;9.20;99.90;;;;;;5001140;28;20203;-75
2022/05/09 01:33:20;;;;;;;0.10;0.10;;;9.20;99.90;;;;;;5008023;28;20216;-74
2022/05/09 01:35:53;;;;;;;0.10;0.10;;;9.10;99.90;;;;;;4998048;28;21290;-75
2022/05/09 01:38:28;;;;;;;0.10;0.10;;;9.10;99.90;;;;;;5018338;28;20693;-76
2022/05/09 01:40:55;;;;;;;0.10;0.10;;;9.10;99.90;;;;;;5018800;28;20623;-73
2022/05/09 01:43:34;;;;;;;0.10;0.10;;;9.00;99.90;;;;;;4995674;28;20655;-75
2022/05/09 01:46:02;;;;;;;0.10;0.10;;;9.10;99.90;;;;;;5005025;28;20219;-74
2022/05/09 01:51:15;;;;;;;0.10;0.10;;;9.00;99.90;;;;;;5001274;28;20773;-74
2022/05/09 01:53:45;;;;;;;0.10;0.10;;;;;;;;;;4999669;28;20716;-74
2022/05/09 01:56:13;;;;;;;0.10;0.10;;;;;;;;;;5004165;28;21237;-74
2022/05/09 01:58:41;;;;;;;0.10;0.10;;;;;;;;;;5017269;28;21080;-75
2022/05/09 02:01:08;;;;;;;0.10;0.10;;;;;;;;;;5000595;28;20627;-74
2022/05/09 02:03:36;;;;;;;0.10;0.10;;;;;;;;;;5005804;28;20626;-74
2022/05/09 02:06:08;;;;;;;0.10;0.10;;;;;;;;;;5018726;28;21247;-75
2022/05/09 02:08:37;;;;;;;0.10;0.10;;;;;;;;;;5004562;28;20631;-74
2022/05/09 02:11:06;;;;;;;0.10;0.10;;;;;;;;;;5004128;28;20622;-74
2022/05/09 02:13:34;;;;;;;0.10;0.10;;;;;;;;;;5004771;28;20699;-74
2022/05/09 02:16:01;;;;;;;0.10;0.10;;;;;;;;;;5022684;28;20623;-74
2022/05/09 02:18:29;;;;;;;0.10;0.10;;;;;;;;;;5003482;28;20615;-74
2022/05/09 02:20:57;;;;;;;0.10;0.10;;;;;;;;;;5004393;28;20627;-73
2022/05/09 02:23:24;;;;;;;0.10;0.10;;;;;;;;;;5020730;28;20599;-74
2022/05/09 02:25:52;;;;;;;0.10;0.10;;;;;;;;;;4999328;28;20611;-73
2022/05/09 02:28:21;;;;;;;0.20;0.20;;;;;;;;;;5002655;28;20732;-73
2022/05/09 02:30:48;;;;;;;0.10;0.10;;;;;;;;;;5006901;28;20634;-73
2022/05/09 02:33:16;;;;;;;0.10;0.10;;;;;;;;;;5004782;28;20662;-73
2022/05/09 02:35:47;;;;;;;0.10;0.10;;;;;;;;;;5003090;28;20733;-73
2022/05/09 02:38:15;;;;;;;0.10;0.10;;;;;;;;;;4996437;28;20716;-74
2022/05/09 02:40:42;;;;;;;0.10;0.10;;;;;;;;;;5003139;28;20637;-73
2022/05/09 02:43:10;;;;;;;0.10;0.10;;;;;;;;;;4995719;28;20626;-73
2022/05/09 02:45:40;;;;;;;0.10;0.10;;;;;;;;;;5018265;28;20669;-74
2022/05/09 02:48:08;;;;;;;0.10;0.10;;;;;;;;;;4994850;28;20796;-74
2022/05/09 02:50:36;;;;;;;0.10;0.10;;;;;;;;;;5001466;28;20672;-74
2022/05/09 02:53:04;;;;;;;0.10;0.10;;;;;;;;;;4995185;28;20650;-74
2022/05/09 02:55:32;;;;;;;0.10;0.10;;;;;;;;;;5003347;28;20641;-74
2022/05/09 02:58:01;;;;;;;0.10;0.10;;;;;;;;;;5019074;28;21201;-73
2022/05/09 03:00:30;;;;;;;0.10;0.10;;;;;;;;;;4999256;28;20692;-73
2022/05/09 03:05:46;;;;;;;0.10;0.10;;;;;;;;;;5006543;28;20615;-74
2022/05/09 03:08:15;;;;;;;0.10;0.10;;;;;;;;;;5001418;28;21267;-74
2022/05/09 03:10:42;;;;;;;0.10;0.10;;;;;;;;;;5001471;28;21245;-73
2022/05/09 03:13:10;;;;;;;0.10;0.10;;;;;;;;;;5020248;28;20655;-73
2022/05/09 03:15:39;;;;;;;0.10;0.10;;;;;;;;;;4996690;28;20623;-73
2022/05/09 03:18:08;;;;;;;0.10;0.10;;;;;;;;;;5001623;28;20697;-74
2022/05/09 03:20:36;;;;;;;0.10;0.10;;;;;;;;;;4995663;28;20764;-74
2022/05/09 03:23:04;;;;;;;0.10;0.10;;;;;;;;;;5018240;28;20633;-74
2022/05/09 03:25:33;;;;;;;0.10;0.10;;;;;;;;;;5003214;28;20633;-74
2022/05/09 03:28:01;;;;;;;0.10;0.10;;;;;;;;;;5002208;28;20654;-74
2022/05/09 03:30:29;;;;;;;0.10;0.10;;;;;;;;;;5019650;28;20630;-74
2022/05/09 03:32:56;;;;;;;0.10;0.10;;;;;;;;;;5016800;28;20618;-74
2022/05/09 03:35:25;;;;;;;0.10;0.10;;;;;;;;;;5001570;28;20639;-74
2022/05/09 03:37:53;;;;;;;0.10;0.10;;;;;;;;;;4999558;28;20654;-73
2022/05/09 03:40:21;;;;;;;0.10;0.10;;;;;;;;;;5024321;28;20630;-73
2022/05/09 03:42:49;;;;;;;0.10;0.10;;;;;;;;;;5013975;28;20615;-73
2022/05/09 03:45:17;;;;;;;0.20;0.20;;;;;;;;;;5001319;28;20722;-73
2022/05/09 03:47:45;;;;;;;0.10;0.10;;;;;;;;;;5006721;28;20678;-73
2022/05/09 03:50:13;;;;;;;0.00;0.00;;;;;;;;;;5004193;28;20630;-74
2022/05/09 03:52:46;;;;;;;0.10;0.10;;;;;;;;;;5005276;28;20662;-73
2022/05/09 03:55:13;;;;;;;0.10;0.10;;;;;;;;;;5002760;28;20661;-73
2022/05/09 03:57:48;;;;;;;0.10;0.10;;;;;;;;;;5005772;28;20753;-74
2022/05/09 04:00:16;;;;;;;0.20;0.20;;;;;;;;;;5022220;28;20626;-74
2022/05/09 04:02:44;;;;;;;0.10;0.10;;;;;;;;;;5024205;28;20643;-74
2022/05/09 04:05:15;;;;;;;0.10;0.10;;;;;;;;;;5001985;28;20657;-75
2022/05/09 04:07:44;;;;;;;0.10;0.10;;;;;;;;;;5001943;28;20655;-73
2022/05/09 04:10:13;;;;;;;0.10;0.10;;;;;;;;;;5001714;28;20684;-74
2022/05/09 04:12:41;;;;;;;0.10;0.10;;;;;;;;;;5002412;28;21097;-73
2022/05/09 04:17:54;;;;;;;0.10;0.10;;;;;;;;;;5001329;28;20692;-73
2022/05/09 04:20:23;;;;;;;0.10;0.10;;;;;;;;;;5000207;28;20891;-73
2022/05/09 04:22:51;;;;;;;0.10;0.10;;;;;;;;;;5001264;28;20725;-73
2022/05/09 04:25:21;;;;;;;0.10;0.10;;;;;;;;;;5000364;28;20630;-73
2022/05/09 04:27:49;;;;;;;0.10;0.10;;;;;;;;;;5003264;28;20668;-75
2022/05/09 04:30:17;;;;;;;0.10;0.10;;;;;;;;;;5003646;28;20648;-76
2022/05/09 04:32:44;;;;;;;0.10;0.10;;;;;;;;;;5018046;28;20650;-75
2022/05/09 04:35:17;;;;;;;0.10;0.10;;;;;;;;;;4996641;28;20655;-74
2022/05/09 04:37:47;;;;;;;0.10;0.10;;;;;;;;;;5020740;28;20649;-75
2022/05/09 04:40:15;;;;;;;0.10;0.10;;;;;;;;;;5004461;28;20645;-74
2022/05/09 04:42:44;;;;;;;0.10;0.10;;;;;;;;;;5023167;28;20627;-72
2022/05/09 04:45:13;;;;;;;0.10;0.10;;;;;;;;;;5017599;28;20638;-73
2022/05/09 04:47:41;;;;;;;0.10;0.10;;;;;;;;;;5004650;28;20719;-72
2022/05/09 04:50:09;;;;;;;0.10;0.10;;;;;;;;;;4999728;28;20635;-72
2022/05/09 04:52:37;;;;;;;0.10;0.10;;;;;;;;;;5007344;28;20687;-73
2022/05/09 04:55:05;;;;;;;0.10;0.10;;;;;;;;;;5021875;28;20745;-73
2022/05/09 04:57:33;;;;;;;0.10;0.10;;;;;;;;;;5004322;28;20801;-73
2022/05/09 05:00:02;;;;;;;0.10;0.10;;;;;;;;;;5000035;28;20204;-72
2022/05/09 05:02:30;;;;;;;0.10;0.10;;;;;;;;;;5001779;28;20203;-73
2022/05/09 05:04:58;;;;;;;0.13;0.13;;;;;;;;;;5020525;28;20276;-73
2022/05/09 05:07:26;;;;;;;0.10;0.10;;;;;;;;;;5001731;28;20224;-71
2022/05/09 05:09:53;;;;;;;0.10;0.10;;;;;;;;;;5004693;28;20204;-72
2022/05/09 05:12:21;;;;;;;0.10;0.10;;;;;;;;;;5003628;28;20231;-72
2022/05/09 05:14:48;;;;;;;0.10;0.10;;;;;;;;;;5007599;28;20222;-75
2022/05/09 05:17:17;;;;;;;0.10;0.10;;;;;;;;;;5018276;28;20220;-74
2022/05/09 05:19:45;;;;;;;0.10;0.10;;;;;;;;;;5024635;28;20319;-75
2022/05/09 05:22:15;;;;;;;0.10;0.10;;;;;;;;;;5008590;28;20207;-74
2022/05/09 05:24:44;;;;;;;0.10;0.10;;;;;;;;;;5005999;28;20315;-74
2022/05/09 05:27:12;;;;;;;0.00;0.00;;;;;;;;;;5004203;28;20310;-74
2022/05/09 05:29:41;;;;;;;0.10;0.10;;;;;;;;;;4998111;28;20211;-75
2022/05/09 05:32:15;;;;;;;0.10;0.10;;;;;;;;;;4999548;28;20232;-74
2022/05/09 05:34:45;;;;;;;0.10;0.10;;;;;;;;;;5016131;28;20320;-74
2022/05/09 05:37:12;;;;;;;0.10;0.10;;;;;;;;;;5022123;28;20224;-73
2022/05/09 05:39:41;;;;;;;0.10;0.10;;;;;;;;;;5022231;28;20334;-73
2022/05/09 05:42:10;;;;;;;0.10;0.10;;;;;;;;;;4997852;28;20213;-73
2022/05/09 05:44:38;;;;;;;0.10;0.10;;;;;;;;;;5005241;28;20259;-73
2022/05/09 05:47:07;;;;;;;0.00;0.00;;;;;;;;;;5020607;28;20216;-73
2022/05/09 05:49:34;;;;;;;0.10;0.10;;;;;;;;;;5004954;28;20203;-74
2022/05/09 05:52:04;;;;;;;0.00;0.00;;;;;;;;;;5008413;28;20289;-73
2022/05/09 05:54:31;;;;;;;0.00;0.00;;;;;;;;;;5000570;28;20274;-73
2022/05/09 05:56:59;;;;;;;0.00;0.00;;;;;;;;;;4995747;28;20586;-73
2022/05/09 05:59:26;;;;;;;0.00;0.00;;;;;;;;;;5005111;28;20210;-73
2022/05/09 06:01:55;;;;;;;0.10;0.10;;;;;;;;;;4998849;28;20196;-74
2022/05/09 06:04:25;;;;;;;0.00;0.00;;;;;;;;;;4999981;28;20204;-74
2022/05/09 06:06:52;;;;;;;0.10;0.10;;;;;;;;;;5000782;28;20251;-73
2022/05/09 06:09:21;;;;;;;0.10;0.10;;;;;;;;;;5021879;28;20196;-74
2022/05/09 06:11:49;;;;;;;0.10;0.10;;;;;;;;;;5023040;28;20199;-74
2022/05/09 06:14:16;;;;;;;0.00;0.00;;;;;;;;;;5000783;28;20233;-74
2022/05/09 06:16:45;;;;;;;0.00;0.00;;;;;;;;;;5000607;28;20224;-74
2022/05/09 06:19:12;;;;;;;0.10;0.10;;;;;;;;;;5000081;28;20199;-73
2022/05/09 06:21:40;;;;;;;0.00;0.00;;;;;;;;;;5018414;28;20208;-74
2022/05/09 06:24:08;;;;;;;0.00;0.00;;;;;;;;;;4999695;28;20207;-74
2022/05/09 06:26:37;;;;;;;0.00;0.00;;;;;;;;;;4998479;28;20298;-73
2022/05/09 06:29:06;;;;;;;0.00;0.00;;;;;;;;;;5019653;28;20204;-74
2022/05/09 06:31:34;;;;;;;0.00;0.00;;;;;;;;;;5021854;28;20203;-74
2022/05/09 06:34:02;;;;;;;0.00;0.00;;;12.70;99.90;;;;;;4989368;28;20258;-74
2022/05/09 06:36:33;;;;;;;0.10;0.10;;;15.90;99.90;;;;;;5005083;28;20216;-74
2022/05/09 06:39:01;;;;;;;0.07;0.07;;;;;;;;;;5000407;28;20204;-74
2022/05/09 06:41:28;;;;;;;0.00;0.00;;;;;;;;;;5002140;28;20211;-73
2022/05/09 06:43:57;;;;;;;0.00;0.00;;;;;;;;;;5018287;28;20703;-73
2022/05/09 06:46:25;;;;;;;0.00;0.00;;;;;;;;;;5000980;28;20587;-74
2022/05/09 06:48:52;;;;;;;0.00;0.00;;;;;;;;;;5000099;28;20355;-73
2022/05/09 06:51:22;;;;;;;0.00;0.00;;;;;;;;;;4992748;28;20204;-73
2022/05/09 06:53:51;;;;;;;0.00;0.00;;;;;;;;;;5001749;28;20205;-74
2022/05/09 06:56:20;;;;;;;0.00;0.00;;;;;;;;;;5003434;28;20208;-74
2022/05/09 06:58:47;;;;;;;0.00;0.00;;;;;;;;;;5002374;28;20666;-74
2022/05/09 07:01:18;;;;;;;0.00;0.00;;;;;;;;;;4999166;28;20563;-74
2022/05/09 07:03:46;;;;;;;0.00;0.00;;;;;;;;;;5016432;28;20833;-74
2022/05/09 07:06:13;;;;;;;0.00;0.00;;;;;;;;;;5021064;28;20200;-75
2022/05/09 07:08:42;;;;;;;0.00;0.00;;;;;;;;;;5003004;28;20204;-74
2022/05/09 07:11:11;;;;;;;0.07;0.07;;;;;;;;;;5013696;28;20201;-74
2022/05/09 07:13:38;;;;;;;0.00;0.00;;;16.00;99.90;;;;;;5004493;28;20306;-73
2022/05/09 07:16:08;;;;;;;0.00;0.00;;;;;;;;;;5007397;28;20573;-74
2022/05/09 07:18:38;;;;;;;0.00;0.00;;;;;;;;;;5025127;28;20199;-74
2022/05/09 07:21:06;;;;;;;0.00;0.00;;;;;;;;;;5008996;28;20196;-75
2022/05/09 07:23:34;;;;;;;0.03;0.03;;;;;;;;;;5006587;28;20199;-74
2022/05/09 07:26:04;;;;;;;0.00;0.00;;;;;;;;;;5003451;28;20299;-73
2022/05/09 07:28:32;;;;;;;0.00;0.00;;;;;;;;;;5008902;28;20214;-74
2022/05/09 07:31:01;;;;;;;0.00;0.00;;;;;;;;;;5025901;28;20203;-74
2022/05/09 07:33:29;;;;;;;0.00;0.00;;;;;;;;;;5000274;28;20254;-74
2022/05/09 07:35:58;;;;;;;0.00;0.00;;;;;;;;;;5007477;28;20260;-74
2022/05/09 07:38:26;;;;;;;0.00;0.00;;;;;;;;;;5002492;28;20302;-75
2022/05/09 07:40:54;;;;;;;0.00;0.00;;;;;;;;;;5006273;28;20207;-74
2022/05/09 07:43:23;;;;;;;0.00;0.00;;;;;;;;;;5002341;28;20327;-74
2022/05/09 07:45:52;;;;;;;0.00;0.00;;;;;;;;;;5002438;28;20192;-73
2022/05/09 07:48:20;;;;;;;0.00;0.00;;;;;;;;;;5026217;22;21028;-73
2022/05/09 07:50:48;;;;;;;0.00;0.00;;;;;;;;;;5050221;28;20294;-71
2022/05/09 07:53:18;;;;;;;0.00;0.00;;;;;;;;;;5066101;28;20194;-71
2022/05/09 07:55:49;;;;;;;0.00;0.00;;;;;;;;;;5067175;28;20229;-72
2022/05/09 07:58:18;;;;;;;0.00;0.00;;;;;;;;;;5063893;28;20194;-72
2022/05/09 08:00:46;;;;;;;0.00;0.00;;;;;;;;;;5042117;28;20636;-71
2022/05/09 08:03:15;;;;;;;0.00;0.00;;;;;;;;;;5041014;22;20224;-75
2022/05/09 08:05:43;;;;;;;0.00;0.00;;;;;;;;;;5025872;28;20206;-75
2022/05/09 08:08:12;;;;;;;0.00;0.00;;;;;;;;;;5025473;28;20230;-75
2022/05/09 08:10:42;;;;;;;0.00;0.00;;;;;;;;;;5021410;28;20693;-75
2022/05/09 08:13:09;;;;;;;0.00;0.00;;;;;;;;;;5028920;28;20199;-75
2022/05/09 08:15:37;;;;;;;0.00;0.00;;;20.40;99.90;;;;;;5026632;28;20225;-76
2022/05/09 08:18:05;;;;;;;0.00;0.00;;;;;;;;;;5022887;28;20247;-76
2022/05/09 08:20:35;;;;;;;0.00;0.00;;;;;;;;;;5022397;28;20208;-76
2022/05/09 08:23:05;;;;;;;0.00;0.00;;;;;;;;;;5021848;28;20203;-76
2022/05/09 08:25:34;;;;;;;0.00;0.00;;;;;;;;;;5023323;28;20200;-76
2022/05/09 08:28:02;;;;;;;0.00;0.00;;;;;;;;;;5028644;28;20219;-76
2022/05/09 08:30:32;;;;;;;0.00;0.00;;;;;;;;;;5021374;28;20278;-77
2022/05/09 08:33:00;;;;;;;0.00;0.00;;;20.80;99.90;;;;;;5024468;28;20219;-77
2022/05/09 08:35:27;;;;;;;0.00;0.00;;;20.80;99.90;;;;;;5017818;28;20223;-77
2022/05/09 08:37:54;;;;;;;0.00;0.00;;;21.00;99.90;;;;;;5017794;28;20315;-76
2022/05/09 08:40:25;;;;;;;0.00;0.00;;;;;;;;;;5014821;28;20211;-76
2022/05/09 08:42:56;;;;;;;0.00;0.00;;;;;;;;;;5024704;28;20209;-76
2022/05/09 08:45:27;;;;;;;0.00;0.00;;;;;;;;;;5019833;28;20195;-76
2022/05/09 08:48:22;;;;;;;0.00;0.00;;;21.40;99.90;;;;;;5021681;28;20227;-76
2022/05/09 08:51:03;;;;;;;0.00;0.00;;;21.50;99.90;;;;;;5025579;28;20207;-76
2022/05/09 08:53:35;;;;;;;0.00;0.00;;;21.60;99.90;;;;;;5022027;28;20207;-77
2022/05/09 08:56:03;;;;;;;0.00;0.00;;;21.50;99.90;;;;;;5015539;28;20316;-77
2022/05/09 08:58:39;;;;;;;0.00;0.00;;;21.50;99.90;;;;;;5019259;28;20231;-76
2022/05/09 09:01:17;;;;;;;0.00;0.00;;;21.30;99.90;;;;;;5024183;28;20963;-77
2022/05/09 09:03:53;;;;;;;0.00;0.00;;;21.40;99.90;;;;;;5025541;28;20217;-77
2022/05/09 09:06:40;;;;;;;0.00;0.00;;;21.40;99.90;;;;;;5018842;28;20208;-77
2022/05/09 09:09:25;;;;;;;0.00;0.00;;;21.40;99.90;;;;;;5014237;28;20208;-77
2022/05/09 09:12:01;;;;;;;0.00;0.00;;;21.50;99.90;;;;;;5022042;28;20200;-77
2022/05/09 09:14:42;;;;;;;0.00;0.00;;;21.70;99.90;;;;;;5017924;28;20204;-77
2022/05/09 09:17:24;;;;;;;0.00;0.00;;;21.70;99.90;;;;;;5017524;28;20301;-77
2022/05/09 09:20:14;;;;;;;0.00;0.00;;;21.90;99.90;;;;;;5019036;28;20204;-77
2022/05/09 09:23:04;;;;;;;0.00;0.00;;;21.90;99.90;;;;;;5011563;28;20216;-76
2022/05/09 09:25:41;;;;;;;0.00;0.00;;;21.80;99.90;;;;;;5006144;28;20669;-77
2022/05/09 09:28:12;;;;;;;0.00;0.00;;;21.90;99.90;;;;;;5023927;28;20223;-77
2022/05/09 09:30:42;;;;;;;0.00;0.00;;;21.90;99.90;;;;;;5024958;28;20254;-77
2022/05/09 09:33:13;;;;;;;0.00;0.00;;;;;;;;;;5024598;28;20223;-78
2022/05/09 09:35:44;;;;;;;0.00;0.00;;;;;;;;;;5020893;28;20236;-78
2022/05/09 09:38:19;;;;;;;0.00;0.00;;;21.70;99.90;;;;;;5021552;28;20247;-78
2022/05/09 09:40:46;;;;;;;0.00;0.00;;;21.70;99.90;;;;;;5016498;28;20333;-77
2022/05/09 09:43:13;;;;;;;0.00;0.00;;;21.70;99.90;;;;;;5020785;28;20215;-77
2022/05/09 09:45:44;;;;;;;0.00;0.00;;;21.80;99.90;;;;;;5020752;28;20709;-77
2022/05/09 09:48:15;;;;;;;0.00;0.00;;;21.90;99.90;;;;;;5018623;28;20246;-77
2022/05/09 09:50:55;;;;;;;0.00;0.00;;;21.70;99.90;;;;;;5022395;28;20279;-77
2022/05/09 09:53:35;;;;;;;0.00;0.00;;;21.70;99.90;;;;;;5022532;28;20208;-77
2022/05/09 09:56:07;;;;;;;0.00;0.00;;;21.70;99.90;;;;;;5019368;28;20215;-77
2022/05/09 09:58:38;;;;;;;0.00;0.00;;;21.80;99.90;;;;;;5020937;28;20248;-77
2022/05/09 10:01:11;;;;;;;0.00;0.00;;;22.10;99.90;;;;;;5017371;28;20212;-79
2022/05/09 10:03:41;;;;;;;0.00;0.00;;;;;;;;;;5022462;28;20215;-79
2022/05/09 10:06:15;;;;;;;0.00;0.00;;;;;;;;;;5014963;28;20215;-78
2022/05/09 10:08:44;;;;;;;0.00;0.00;;;;;;;;;;5024916;28;20200;-77
2022/05/09 10:11:12;;;;;;;0.00;0.00;;;;;;;;;;5023111;28;20203;-77
2022/05/09 10:13:43;;;;;;;0.00;0.00;;;22.80;99.90;;;;;;5017074;28;20299;-77
2022/05/09 10:16:12;;;;;;;0.00;0.00;;;22.90;99.90;;;;;;5022644;28;20246;-78
2022/05/09 10:18:46;;;;;;;0.00;0.00;;;22.90;99.90;;;;;;5057942;22;20218;-72
2022/05/09 10:24:47;;;;;;;0.00;0.00;;;23.00;99.90;;;;;;5026654;28;20269;-73
2022/05/09 10:26:57;;;;;;;0.00;0.00;;;23.20;99.90;;;;;;5021713;28;20246;-72
2022/05/09 10:29:28;;;;;;;0.00;0.00;;;23.30;99.90;;;;;;5006192;28;20295;-73
2022/05/09 10:31:59;;;;;;;0.00;0.00;;;;;;;;;;5002666;28;20231;-71
2022/05/09 10:34:35;;;;;;;0.00;0.00;;;;;;;;;;5006251;28;20288;-71
2022/05/09 10:37:04;;;;;;;0.00;0.00;;;;;;;;;;5022165;28;20221;-71
2022/05/09 10:39:34;;;;;;;0.00;0.00;;;;;;;;;;5001180;28;20207;-72
2022/05/09 10:42:02;;;;;;;0.00;0.00;;;;;;;;;;5024131;28;20299;-72
2022/05/09 10:44:39;;;;;;;0.00;0.00;;;;;;;;;;5009532;28;20210;-71
2022/05/09 10:47:09;;;;;;;0.00;0.00;;;;;;;;;;5006223;28;20204;-71
2022/05/09 10:49:43;;;;;;;0.00;0.00;;;;;;;;;;5002682;28;20208;-72
2022/05/09 10:52:17;;;;;;;0.00;0.00;;;;;;;;;;5008984;28;20210;-72
2022/05/09 10:54:47;;;;;;;0.00;0.00;;;;;;;;;;5018297;28;20210;-72
2022/05/09 10:57:18;;;;;;;0.00;0.00;;;;;;;;;;5011558;28;20243;-71
2022/05/09 10:59:45;;;;;;;0.00;0.00;;;;;;;;;;5007140;28;20199;-72
2022/05/09 11:02:17;;;;;;;0.00;0.00;;;;;;;;;;5019058;28;20205;-72
2022/05/09 11:04:46;;;;;;;0.00;0.00;;;;;;;;;;5024923;28;20200;-71
2022/05/09 11:07:19;;;;;;;0.00;0.00;;;;;;;;;;5004796;28;20260;-72
2022/05/09 11:09:55;;;;;;;0.00;0.00;;;;;;;;;;4999696;28;20204;-71
2022/05/09 11:12:34;;;;;;;0.00;0.00;;;;;;;;;;5008812;28;20227;-71
2022/05/09 11:15:06;;;;;;;0.00;0.00;;;;;;;;;;5006964;28;20196;-71
2022/05/09 11:17:51;;;;;;;0.00;0.00;;;;;;;;;;4954821;28;1496033;-71
2022/05/09 11:20:24;;;;;;;0.00;0.00;;;;;;;;;;5026719;28;20210;-72
2022/05/09 11:22:59;;;;;;;0.00;0.00;;;;;;;;;;5024667;28;20222;-71
2022/05/09 11:25:36;;;;;;;0.00;0.00;;;;;;;;;;5009268;28;20299;-71
2022/05/09 11:28:10;;;;;;;0.00;0.00;;;;;;;;;;5014354;28;20303;-72
2022/05/09 11:30:39;;;;;;;0.00;0.00;;;;;;;;;;5012288;28;20357;-72
2022/05/09 11:33:24;;;;;;;0.00;0.00;;;;;;;;;;5004300;28;20719;-72
2022/05/09 11:35:54;;;;;;;0.00;0.00;;;;;;;;;;5007208;28;20274;-72
2022/05/09 11:38:31;;;;;;;0.00;0.00;;;;;;;;;;5004764;28;20208;-72
2022/05/09 11:41:02;;;;;;;0.00;0.00;;;;;;;;;;5007487;28;20200;-71
2022/05/09 11:43:44;;;;;;;0.00;0.00;;;;;;;;;;5024452;28;20220;-72
2022/05/09 11:46:19;;;;;;;0.00;0.00;;;;;;;;;;5006447;28;20204;-72
2022/05/09 11:48:54;;;;;;;0.00;0.00;;;;;;;;;;5018979;28;20677;-72
2022/05/09 11:51:26;;;;;;;0.00;0.00;;;;;;;;;;5005101;28;20246;-71
2022/05/09 11:53:56;;;;;;;0.00;0.00;;;;;;;;;;5009738;28;20222;-72
2022/05/09 11:56:23;;;;;;;0.00;0.00;;;25.00;99.90;;;;;;5007460;28;20216;-72
2022/05/09 11:58:51;;;;;;;0.00;0.00;;;24.90;99.90;;;;;;5007389;28;20227;-71
2022/05/09 12:01:59;;;;;;;0.00;0.00;;;24.50;99.90;;;;;;5027330;28;20243;-71
2022/05/09 12:04:33;;;;;;;0.00;0.00;;;24.40;99.90;;;;;;5024532;28;20893;-72
2022/05/09 12:07:17;;;;;;;0.00;0.00;;;24.30;99.90;;;;;;5025348;28;20200;-71
2022/05/09 12:10:02;;;;;;;0.00;0.00;;;24.30;99.90;;;;;;5024931;28;20204;-71
2022/05/09 12:12:54;;;;;;;0.00;0.00;;;24.30;99.90;;;;;;5024372;28;20254;-72
2022/05/09 12:15:52;;;;;;;0.00;0.00;;;24.30;99.90;;;;;;5009988;28;20223;-72
2022/05/09 12:18:23;;;;;;;0.00;0.00;;;24.30;99.90;;;;;;5009784;28;20211;-72
2022/05/09 12:21:25;;;;;;;0.00;0.00;;;24.30;99.90;;;;;;5011229;28;20196;-71
2022/05/09 12:24:23;;;;;;;0.00;0.00;;;24.30;99.90;;;;;;5019384;28;20258;-72
2022/05/09 12:26:53;;;;;;;0.00;0.00;;;24.30;99.90;;;;;;5025159;28;20200;-72
2022/05/09 12:29:45;;;;;;;0.00;0.00;;;24.10;99.90;;;;;;5025460;28;20746;-71
2022/05/09 12:32:14;;;;;;;0.00;0.00;;;24.00;99.90;;;;;;5010970;28;20196;-74
2022/05/09 12:34:44;;;;;;;0.00;0.00;;;24.00;99.90;;;;;;5007470;28;20289;-72
2022/05/09 12:37:19;;;;;;;0.00;0.00;;;23.80;99.90;;;;;;5017985;28;20208;-73
2022/05/09 12:39:50;;;;;;;0.00;0.00;;;23.90;99.90;;;;;;5019975;28;20207;-73
2022/05/09 12:42:30;;;;;;;0.00;0.00;;;24.00;99.90;;;;;;5003765;28;20228;-73
2022/05/09 12:45:01;;;;;;;0.00;0.00;;;24.00;99.90;;;;;;5024137;28;20262;-72
2022/05/09 12:47:33;;;;;;;0.00;0.00;;;24.00;99.90;;;;;;5015826;28;20279;-72
2022/05/09 12:50:05;;;;;;;0.00;0.00;;;24.10;99.90;;;;;;5020955;28;20275;-72
2022/05/09 12:52:36;;;;;;;0.00;0.00;;;24.10;99.90;;;;;;5024781;28;20220;-72
2022/05/09 12:57:58;;;;;;;0.00;0.00;;;24.10;99.90;;;;;;5005158;28;20223;-72
2022/05/09 13:00:27;;;;;;;0.00;0.00;;;24.10;99.90;;;;;;5003987;28;20210;-72
2022/05/09 13:02:55;;;;;;;0.00;0.00;;;24.00;99.90;;;;;;5027627;28;20215;-72
2022/05/09 13:05:35;;;;;;;0.00;0.00;;;23.90;99.90;;;;;;5010246;28;20212;-73
2022/05/09 13:08:04;;;;;;;0.00;0.00;;;23.90;99.90;;;;;;5009690;28;20210;-72
2022/05/09 13:10:42;;;;;;;0.00;0.00;;;23.90;99.90;;;;;;5027189;28;21082;-72
2022/05/09 13:13:13;;;;;;;0.00;0.00;;;23.90;99.90;;;;;;5011498;28;20223;-73
2022/05/09 13:15:44;;;;;;;0.00;0.00;;;23.80;99.90;;;;;;5024865;28;20223;-72
2022/05/09 13:18:23;;;;;;;0.00;0.00;;;23.50;99.90;;;;;;5020423;28;20220;-73
2022/05/09 13:20:53;;;;;;;0.00;0.00;;;23.40;99.90;;;;;;5022142;28;20198;-72
2022/05/09 13:23:28;;;;;;;0.00;0.00;;;23.20;99.90;;;;;;5004096;28;20307;-72
2022/05/09 13:26:00;;;;;;;0.00;0.00;;;23.10;99.90;;;;;;5001709;28;20204;-72
2022/05/09 13:28:31;;;;;;;0.00;0.00;;;23.00;99.90;;;;;;5006900;28;20207;-72
2022/05/09 13:30:58;;;;;;;0.00;0.00;;;23.00;99.90;;;;;;5021004;28;20742;-72
2022/05/09 13:33:28;;;;;;;0.00;0.00;;;22.90;99.90;;;;;;5014869;28;20223;-72
2022/05/09 13:35:56;;;;;;;0.00;0.00;;;23.00;99.90;;;;;;5015499;28;20199;-72
2022/05/09 13:38:30;;;;;;;0.00;0.00;;;22.90;99.90;;;;;;5020710;28;20200;-72
2022/05/09 13:41:05;;;;;;;0.00;0.00;;;22.90;99.90;;;;;;5012163;28;20200;-72
2022/05/09 13:43:37;;;;;;;0.00;0.00;;;22.90;99.90;;;;;;5009643;28;20223;-72
2022/05/09 13:46:07;;;;;;;0.00;0.00;;;22.80;99.90;;;;;;5013485;28;20211;-72
2022/05/09 13:48:34;;;;;;;0.00;0.00;;;22.70;99.90;;;;;;5008008;28;20200;-72
2022/05/09 13:51:02;;;;;;;0.00;0.00;;;22.70;99.90;;;;;;5006061;28;20204;-73
2022/05/09 13:53:32;;;;;;;0.00;0.00;;;22.60;99.90;;;;;;5006439;28;20238;-72
2022/05/09 13:56:08;;;;;;;0.00;0.00;;;22.50;99.90;;;;;;5003168;28;20203;-72
2022/05/09 13:58:38;;;;;;;0.00;0.00;;;22.50;99.90;;;;;;5019490;28;20405;-72
2022/05/09 14:01:07;;;;;;;0.00;0.00;;;22.50;99.90;;;;;;4998903;28;20199;-72
2022/05/09 14:03:57;;;;;;;0.00;0.00;;;22.50;99.90;;;;;;5024170;28;20226;-73
2022/05/09 14:06:29;;;;;;;0.00;0.00;;;22.60;99.90;;;;;;5021777;28;20196;-73
2022/05/09 14:09:05;;;;;;;0.00;0.00;;;22.60;99.90;;;;;;5019300;28;20195;-72
2022/05/09 14:11:37;;;;;;;0.00;0.00;;;22.50;99.90;;;;;;5004678;28;20258;-72
2022/05/09 14:14:06;;;;;;;0.00;0.00;;;22.50;99.90;;;;;;5016223;28;20224;-73
2022/05/09 14:16:36;;;;;;;0.00;0.00;;;22.40;99.90;;;;;;5017625;28;20212;-72
2022/05/09 14:19:15;;;;;;;0.00;0.00;;;22.50;99.90;;;;;;5020279;28;20258;-72
2022/05/09 14:21:45;;;;;;;0.00;0.00;;;22.60;99.90;;;;;;5027320;28;20195;-72
2022/05/09 14:24:14;;;;;;;0.00;0.00;;;22.50;99.90;;;;;;5020895;28;20247;-73
2022/05/09 14:29:38;;;;;;;0.00;0.00;;;22.50;99.90;;;;;;5018271;28;20211;-72
2022/05/09 14:32:08;;;;;;;0.00;0.00;;;22.60;99.90;;;;;;5015882;28;20208;-71
2022/05/09 14:34:39;;;;;;;0.00;0.00;;;22.60;99.90;;;;;;5013356;28;20291;-72
2022/05/09 14:37:30;;;;;;;0.00;0.00;;;22.60;99.90;;;;;;5019428;28;20224;-72